createdAt,value
2023-01-13T00:00:58.117Z,96601.16
2023-01-13T00:03:24.814Z,96594.78
2023-01-13T00:05:51.607Z,96599.94
2023-01-13T00:08:18.069Z,96592.44
2023-01-13T00:10:48.372Z,96585.63
2023-01-13T00:13:16.328Z,96582.22
2023-01-13T00:15:43.159Z,96590.47
2023-01-13T00:18:09.727Z,96609.09
2023-01-13T00:20:36.204Z,96602.31
2023-01-13T00:23:04.457Z,96603.75
2023-01-13T00:25:31.060Z,96605.53
2023-01-13T00:27:57.680Z,96597.44
2023-01-13T00:30:26.995Z,96593.50
2023-01-13T00:32:53.914Z,96580.09
2023-01-13T00:35:20.401Z,96579.31
2023-01-13T00:37:46.862Z,96585.59
2023-01-13T00:40:14.868Z,96580.13
2023-01-13T00:43:00.042Z,96573.50
2023-01-13T00:45:26.861Z,96562.31
2023-01-13T00:47:53.428Z,96561.28
2023-01-13T00:50:20.025Z,96557.00
2023-01-13T00:52:46.584Z,96546.81
2023-01-13T00:55:13.293Z,96544.50
2023-01-13T00:57:40.153Z,96536.84
2023-01-13T01:00:07.677Z,96529.88
2023-01-13T01:02:34.210Z,96532.06
2023-01-13T01:05:00.999Z,96536.59
2023-01-13T01:07:27.567Z,96547.44
2023-01-13T01:09:54.067Z,96577.31
2023-01-13T01:12:20.551Z,96570.91
2023-01-13T01:14:47.191Z,96573.97
2023-01-13T01:17:13.757Z,96584.66
2023-01-13T01:19:40.912Z,96591.78
2023-01-13T01:22:07.677Z,96590.09
2023-01-13T01:24:34.319Z,96584.09
2023-01-13T01:27:00.880Z,96584.66
2023-01-13T01:29:27.561Z,96595.66
2023-01-13T01:31:54.146Z,96591.63
2023-01-13T01:34:20.595Z,96588.56
2023-01-13T01:36:47.197Z,96584.50
2023-01-13T01:39:13.980Z,96575.84
2023-01-13T01:42:01.117Z,96568.97
2023-01-13T01:44:42.898Z,96588.59
2023-01-13T01:47:12.925Z,96586.06
2023-01-13T01:49:40.563Z,96576.72
2023-01-13T01:52:29.496Z,96573.41
2023-01-13T01:55:13.097Z,96576.38
2023-01-13T01:57:55.367Z,96570.88
2023-01-13T02:00:22.296Z,96554.78
2023-01-13T02:02:51.569Z,96560.16
2023-01-13T02:05:18.962Z,96555.47
2023-01-13T02:07:51.434Z,96546.56
2023-01-13T02:10:21.795Z,96550.53
2023-01-13T02:12:49.675Z,96551.09
2023-01-13T02:15:19.039Z,96552.78
2023-01-13T02:18:00.971Z,96559.25
2023-01-13T02:20:59.161Z,96558.19
2023-01-13T02:24:06.415Z,96544.44
2023-01-13T02:26:51.884Z,96545.34
2023-01-13T02:30:01.772Z,96543.69
2023-01-13T02:32:43.678Z,96538.75
2023-01-13T02:35:28.327Z,96525.84
2023-01-13T02:37:58.684Z,96520.69
2023-01-13T02:40:33.804Z,96525.09
2023-01-13T02:43:35.315Z,96508.63
2023-01-13T02:46:15.975Z,96508.03
2023-01-13T02:48:46.150Z,96510.97
2023-01-13T02:51:17.123Z,96501.38
2023-01-13T02:54:09.491Z,96495.81
2023-01-13T02:56:42.142Z,96503.47
2023-01-13T02:59:10.475Z,96500.97
2023-01-13T03:01:37.603Z,96492.97
2023-01-13T03:04:47.342Z,96498.94
2023-01-13T03:07:22.856Z,96497.72
2023-01-13T03:09:57.673Z,96503.09
2023-01-13T03:13:05.007Z,96489.84
2023-01-13T03:16:00.064Z,96487.34
2023-01-13T03:18:38.682Z,96486.75
2023-01-13T03:21:05.495Z,96486.69
2023-01-13T03:23:35.205Z,96476.09
2023-01-13T03:26:08.935Z,96486.31
2023-01-13T03:28:51.086Z,96480.59
2023-01-13T03:31:24.987Z,96480.66
2023-01-13T03:34:17.348Z,96475.81
2023-01-13T03:36:46.251Z,96465.31
2023-01-13T03:39:22.678Z,96453.38
2023-01-13T03:41:57.563Z,96458.78
2023-01-13T03:44:32.939Z,96456.75
2023-01-13T03:47:02.279Z,96467.66
2023-01-13T03:49:34.882Z,96474.03
2023-01-13T03:52:06.466Z,96469.19
2023-01-13T03:54:36.285Z,96453.50
2023-01-13T03:57:08.962Z,96455.47
2023-01-13T03:59:40.932Z,96462.09
2023-01-13T04:02:12.780Z,96454.78
2023-01-13T04:04:47.058Z,96455.13
2023-01-13T04:07:19.747Z,96447.31
2023-01-13T04:09:51.165Z,96435.03
2023-01-13T04:12:28.268Z,96419.06
2023-01-13T04:14:56.317Z,96417.47
2023-01-13T04:17:24.639Z,96420.31
2023-01-13T04:19:51.206Z,96433.63
2023-01-13T04:22:18.011Z,96443.66
2023-01-13T04:24:44.934Z,96449.06
2023-01-13T04:27:11.848Z,96435.34
2023-01-13T04:29:38.684Z,96426.28
2023-01-13T04:32:05.170Z,96440.84
2023-01-13T04:34:31.984Z,96455.72
2023-01-13T04:36:58.937Z,96462.72
2023-01-13T04:39:25.462Z,96451.44
2023-01-13T04:41:58.396Z,96424.09
2023-01-13T04:44:26.153Z,96408.69
2023-01-13T04:46:53.027Z,96413.31
2023-01-13T04:49:20.217Z,96416.53
2023-01-13T04:51:47.144Z,96421.41
2023-01-13T04:54:14.036Z,96431.78
2023-01-13T04:56:40.540Z,96420.94
2023-01-13T04:59:07.146Z,96420.16
2023-01-13T05:01:33.784Z,96413.50
2023-01-13T05:04:00.581Z,96413.94
2023-01-13T05:06:27.114Z,96405.25
2023-01-13T05:08:53.736Z,96396.09
2023-01-13T05:11:39.038Z,96394.38
2023-01-13T05:14:24.355Z,96398.16
2023-01-13T05:17:03.862Z,96397.69
2023-01-13T05:19:35.971Z,96402.13
2023-01-13T05:22:22.634Z,96424.72
2023-01-13T05:25:07.568Z,96428.06
2023-01-13T05:27:34.098Z,96421.81
2023-01-13T05:30:01.177Z,96421.94
2023-01-13T05:32:30.577Z,96409.59
2023-01-13T05:34:57.314Z,96422.34
2023-01-13T05:37:25.714Z,96434.00
2023-01-13T05:40:11.503Z,96425.69
2023-01-13T05:42:57.569Z,96426.25
2023-01-13T05:45:24.715Z,96421.66
2023-01-13T05:47:51.357Z,96410.75
2023-01-13T05:50:18.605Z,96400.34
2023-01-13T05:52:46.284Z,96410.28
2023-01-13T05:55:12.894Z,96410.22
2023-01-13T05:57:39.441Z,96394.56
2023-01-13T06:00:06.851Z,96393.56
2023-01-13T06:06:22.865Z,96387.25
2023-01-13T06:08:49.351Z,96390.41
2023-01-13T06:11:16.097Z,96403.06
2023-01-13T06:13:42.770Z,96396.66
2023-01-13T06:16:09.423Z,96404.22
2023-01-13T06:18:35.997Z,96409.31
2023-01-13T06:21:02.447Z,96412.09
2023-01-13T06:23:29.464Z,96410.31
2023-01-13T06:26:07.132Z,96424.56
2023-01-13T06:28:34.859Z,96419.91
2023-01-13T06:31:05.573Z,96428.63
2023-01-13T06:33:39.175Z,96433.78
2023-01-13T06:36:12.120Z,96431.28
2023-01-13T06:38:42.377Z,96427.59
2023-01-13T06:41:09.413Z,96432.34
2023-01-13T06:43:36.130Z,96435.03
2023-01-13T06:46:03.389Z,96426.72
2023-01-13T06:48:34.132Z,96426.06
2023-01-13T06:51:01.868Z,96430.56
2023-01-13T06:53:28.496Z,96429.31
2023-01-13T06:55:54.979Z,96426.44
2023-01-13T06:58:21.445Z,96426.53
2023-01-13T07:00:51.490Z,96434.81
2023-01-13T07:03:19.757Z,96427.25
2023-01-13T07:05:53.276Z,96434.88
2023-01-13T07:08:20.648Z,96443.81
2023-01-13T07:10:47.109Z,96442.19
2023-01-13T07:13:32.488Z,96439.41
2023-01-13T07:16:05.357Z,96444.75
2023-01-13T07:18:33.234Z,96442.34
2023-01-13T07:21:08.170Z,96437.50
2023-01-13T07:23:41.906Z,96447.53
2023-01-13T07:26:10.233Z,96450.47
2023-01-13T07:28:37.676Z,96449.69
2023-01-13T07:31:04.853Z,96447.44
2023-01-13T07:33:33.255Z,96443.84
2023-01-13T07:36:02.543Z,96439.63
2023-01-13T07:38:29.984Z,96436.06
2023-01-13T07:40:56.482Z,96448.50
2023-01-13T07:43:32.083Z,96456.59
2023-01-13T07:46:04.882Z,96463.06
2023-01-13T07:48:33.644Z,96457.84
2023-01-13T07:51:10.394Z,96456.59
2023-01-13T07:53:37.593Z,96459.91
2023-01-13T07:56:05.885Z,96455.16
2023-01-13T07:58:39.125Z,96446.91
2023-01-13T08:01:14.061Z,96433.06
2023-01-13T08:03:41.023Z,96430.03
2023-01-13T08:06:07.862Z,96412.34
2023-01-13T08:08:34.515Z,96410.91
2023-01-13T08:11:03.069Z,96413.19
2023-01-13T08:13:29.613Z,96406.41
2023-01-13T08:16:01.268Z,96386.94
2023-01-13T08:18:27.862Z,96395.75
2023-01-13T08:20:54.450Z,96401.19
2023-01-13T08:23:22.810Z,96403.56
2023-01-13T08:25:49.874Z,96399.47
2023-01-13T08:28:17.513Z,96402.31
2023-01-13T08:30:44.587Z,96413.47
2023-01-13T08:33:12.495Z,96439.50
2023-01-13T08:35:40.254Z,96443.09
2023-01-13T08:38:08.140Z,96442.13
2023-01-13T08:40:35.268Z,96461.13
2023-01-13T08:43:01.830Z,96473.28
2023-01-13T08:45:28.387Z,96468.69
2023-01-13T08:47:55.005Z,96470.16
2023-01-13T08:50:21.595Z,96457.47
2023-01-13T08:52:48.356Z,96453.06
2023-01-13T08:55:15.839Z,96462.59
2023-01-13T08:57:42.389Z,96456.56
2023-01-13T09:00:09.930Z,96444.19
2023-01-13T09:02:38.423Z,96452.34
2023-01-13T09:05:07.354Z,96456.44
2023-01-13T09:07:35.720Z,96454.41
2023-01-13T09:10:04.171Z,96461.09
2023-01-13T09:12:49.305Z,96471.84
2023-01-13T09:15:18.519Z,96464.63
2023-01-13T09:17:46.049Z,96468.19
2023-01-13T09:20:13.063Z,96456.72
2023-01-13T09:22:40.777Z,96461.81
2023-01-13T09:25:07.699Z,96467.84
2023-01-13T09:27:34.302Z,96481.56
2023-01-13T09:30:00.758Z,96496.47
2023-01-13T09:32:27.560Z,96486.16
2023-01-13T09:34:59.959Z,96488.75
2023-01-13T09:37:34.216Z,96487.97
2023-01-13T09:40:01.636Z,96481.22
2023-01-13T09:43:11.203Z,96478.91
2023-01-13T09:45:47.503Z,96476.78
2023-01-13T09:48:29.675Z,96476.91
2023-01-13T09:51:18.697Z,96477.09
2023-01-13T09:53:55.825Z,96483.16
2023-01-13T09:56:25.962Z,96479.09
2023-01-13T09:58:52.554Z,96462.66
2023-01-13T10:01:26.385Z,96461.69
2023-01-13T10:03:53.712Z,96457.91
2023-01-13T10:06:39.415Z,96449.91
2023-01-13T10:09:06.413Z,96451.69
2023-01-13T10:11:57.599Z,96449.53
2023-01-13T10:14:30.670Z,96455.25
2023-01-13T10:17:39.961Z,96447.75
2023-01-13T10:20:19.300Z,96439.22
2023-01-13T10:22:53.358Z,96443.72
2023-01-13T10:25:31.873Z,96449.31
2023-01-13T10:28:01.952Z,96445.66
2023-01-13T10:30:40.853Z,96479.38
2023-01-13T10:33:18.940Z,96495.66
2023-01-13T10:35:52.114Z,96497.22
2023-01-13T10:38:23.516Z,96480.91
2023-01-13T10:40:56.010Z,96472.16
2023-01-13T10:43:23.009Z,96475.50
2023-01-13T10:46:11.779Z,96491.63
2023-01-13T10:48:58.675Z,96498.41
2023-01-13T10:51:29.727Z,96505.75
2023-01-13T10:54:12.741Z,96495.13
2023-01-13T10:56:42.747Z,96504.31
2023-01-13T10:59:27.399Z,96493.19
2023-01-13T11:02:01.221Z,96496.53
2023-01-13T11:04:30.620Z,96495.63
2023-01-13T11:06:57.934Z,96483.13
2023-01-13T11:09:26.274Z,96491.22
2023-01-13T11:11:56.439Z,96478.00
2023-01-13T11:14:33.461Z,96482.53
2023-01-13T11:17:05.409Z,96481.19
2023-01-13T11:19:32.881Z,96471.31
2023-01-13T11:22:21.623Z,96471.53
2023-01-13T11:24:53.382Z,96472.75
2023-01-13T11:27:40.032Z,96457.75
2023-01-13T11:30:09.921Z,96466.47
2023-01-13T11:33:06.228Z,96467.50
2023-01-13T11:35:37.886Z,96474.00
2023-01-13T11:38:28.963Z,96458.00
2023-01-13T11:41:05.104Z,96448.09
2023-01-13T11:43:44.097Z,96443.22
2023-01-13T11:46:11.006Z,96455.59
2023-01-13T11:48:42.071Z,96464.56
2023-01-13T11:51:14.658Z,96437.91
2023-01-13T11:53:44.095Z,96440.63
2023-01-13T11:56:13.214Z,96440.38
2023-01-13T11:59:10.826Z,96444.13
2023-01-13T12:01:50.684Z,96402.22
2023-01-13T12:04:23.720Z,96406.69
2023-01-13T12:07:07.389Z,96404.97
2023-01-13T12:09:49.891Z,96389.00
2023-01-13T12:12:39.473Z,96377.66
2023-01-13T12:15:37.911Z,96377.66
2023-01-13T12:18:31.053Z,96353.13
2023-01-13T12:21:06.890Z,96363.38
2023-01-13T12:23:46.113Z,96355.00
2023-01-13T12:26:17.002Z,96342.53
2023-01-13T12:28:56.104Z,96355.72
2023-01-13T12:31:23.772Z,96372.28
2023-01-13T12:34:00.572Z,96365.59
2023-01-13T12:36:58.777Z,96352.78
2023-01-13T12:39:46.922Z,96360.84
2023-01-13T12:42:53.052Z,96381.19
2023-01-13T12:45:21.815Z,96382.50
2023-01-13T12:47:48.614Z,96365.31
2023-01-13T12:50:27.223Z,96376.19
2023-01-13T12:52:56.293Z,96381.78
2023-01-13T12:55:23.389Z,96390.53
2023-01-13T12:58:08.194Z,96379.00
2023-01-13T13:00:40.803Z,96390.13
2023-01-13T13:03:19.355Z,96417.31
2023-01-13T13:06:07.432Z,96430.41
2023-01-13T13:08:43.162Z,96435.75
2023-01-13T13:11:53.486Z,96440.34
2023-01-13T13:14:42.148Z,96456.72
2023-01-13T13:17:29.842Z,96470.00
2023-01-13T13:19:58.164Z,96470.03
2023-01-13T13:22:27.439Z,96482.50
2023-01-13T13:25:00.220Z,96477.06
2023-01-13T13:27:38.062Z,96469.69
2023-01-13T13:30:12.841Z,96488.13
2023-01-13T13:32:45.434Z,96470.06
2023-01-13T13:35:27.932Z,96475.47
2023-01-13T13:38:22.290Z,96498.66
2023-01-13T13:41:08.314Z,96517.00
2023-01-13T13:44:00.540Z,96529.69
2023-01-13T13:46:49.088Z,96526.50
2023-01-13T13:49:22.434Z,96513.38
2023-01-13T13:52:00.068Z,96539.53
2023-01-13T13:54:27.390Z,96553.75
2023-01-13T13:56:54.505Z,96561.38
2023-01-13T13:59:28.000Z,96551.91
2023-01-13T14:02:03.990Z,96572.78
2023-01-13T14:04:33.047Z,96564.72
2023-01-13T14:07:26.282Z,96565.50
2023-01-13T14:09:54.611Z,96566.09
2023-01-13T14:12:24.160Z,96572.06
2023-01-13T14:14:52.004Z,96579.50
2023-01-13T14:17:22.276Z,96584.34
2023-01-13T14:20:14.710Z,96592.06
2023-01-13T14:22:49.383Z,96576.63
2023-01-13T14:25:31.013Z,96558.38
2023-01-13T14:28:00.025Z,96578.88
2023-01-13T14:30:28.096Z,96598.91
2023-01-13T14:32:56.574Z,96613.25
2023-01-13T14:35:23.473Z,96616.06
2023-01-13T14:37:54.226Z,96610.16
2023-01-13T14:40:32.840Z,96610.81
2023-01-13T14:43:03.101Z,96629.50
2023-01-13T14:45:32.971Z,96643.66
2023-01-13T14:48:01.782Z,96650.72
2023-01-13T14:50:33.841Z,96667.19
2023-01-13T14:53:01.618Z,96670.63
2023-01-13T14:55:34.401Z,96668.28
2023-01-13T14:58:23.331Z,96674.88
2023-01-13T15:00:51.965Z,96689.94
2023-01-13T15:03:20.119Z,96694.66
2023-01-13T15:05:53.567Z,96690.56
2023-01-13T15:08:30.509Z,96687.38
2023-01-13T15:11:02.760Z,96693.81
2023-01-13T15:13:29.288Z,96690.91
2023-01-13T15:15:57.563Z,96696.91
2023-01-13T15:18:24.210Z,96707.84
2023-01-13T15:20:53.486Z,96706.19
2023-01-13T15:23:20.608Z,96688.16
2023-01-13T15:25:49.669Z,96693.16
2023-01-13T15:28:22.217Z,96685.84
2023-01-13T15:30:50.190Z,96678.28
2023-01-13T15:33:18.308Z,96675.81
2023-01-13T15:35:51.703Z,96671.56
2023-01-13T15:38:21.138Z,96677.19
2023-01-13T15:40:50.786Z,96683.22
2023-01-13T15:43:42.109Z,96670.50
2023-01-13T15:46:38.010Z,96660.63
2023-01-13T15:49:41.165Z,96684.88
2023-01-13T15:52:23.478Z,96683.75
2023-01-13T15:54:51.177Z,96677.31
2023-01-13T15:57:32.730Z,96689.03
2023-01-13T16:00:02.460Z,96681.91
2023-01-13T16:02:30.934Z,96677.63
2023-01-13T16:04:57.545Z,96680.50
2023-01-13T16:07:25.810Z,96691.41
2023-01-13T16:09:53.037Z,96689.41
2023-01-13T16:12:19.579Z,96691.97
2023-01-13T16:14:47.142Z,96682.50
2023-01-13T16:17:20.029Z,96695.38
2023-01-13T16:19:47.935Z,96696.81
2023-01-13T16:22:18.877Z,96703.00
2023-01-13T16:24:45.370Z,96696.91
2023-01-13T16:27:15.920Z,96692.25
2023-01-13T16:29:43.089Z,96676.63
2023-01-13T16:32:09.920Z,96687.47
2023-01-13T16:34:36.588Z,96712.84
2023-01-13T16:37:03.203Z,96724.19
2023-01-13T16:39:30.943Z,96724.88
2023-01-13T16:41:58.181Z,96737.16
2023-01-13T16:44:24.719Z,96736.91
2023-01-13T16:46:51.337Z,96730.69
2023-01-13T16:49:21.009Z,96723.66
2023-01-13T16:51:50.283Z,96729.78
2023-01-13T16:54:19.157Z,96752.38
2023-01-13T16:56:45.916Z,96774.41
2023-01-13T16:59:17.821Z,96754.81
2023-01-13T17:01:49.855Z,96764.88
2023-01-13T17:04:21.920Z,96768.00
2023-01-13T17:06:55.988Z,96773.13
2023-01-13T17:09:24.839Z,96773.75
2023-01-13T17:11:52.470Z,96778.72
2023-01-13T17:14:21.813Z,96779.78
2023-01-13T17:16:51.785Z,96796.88
2023-01-13T17:19:21.411Z,96796.88
2023-01-13T17:21:54.212Z,96820.06
2023-01-13T17:24:21.397Z,96820.25
2023-01-13T17:26:52.455Z,96817.66
2023-01-13T17:29:25.169Z,96820.34
2023-01-13T17:31:53.225Z,96842.63
2023-01-13T17:34:21.147Z,96830.78
2023-01-13T17:36:52.667Z,96819.56
2023-01-13T17:39:22.272Z,96811.13
2023-01-13T17:41:58.352Z,96809.97
2023-01-13T17:44:25.069Z,96814.75
2023-01-13T17:46:51.636Z,96828.53
2023-01-13T17:49:19.842Z,96829.00
2023-01-13T17:51:48.867Z,96817.94
2023-01-13T17:54:15.920Z,96827.09
2023-01-13T17:56:43.237Z,96832.31
2023-01-13T17:59:12.249Z,96827.34
2023-01-13T18:01:39.881Z,96816.91
2023-01-13T18:04:07.086Z,96816.06
2023-01-13T18:06:34.233Z,96825.59
2023-01-13T18:09:01.215Z,96840.81
2023-01-13T18:11:27.947Z,96839.25
2023-01-13T18:13:56.894Z,96816.97
2023-01-13T18:16:24.811Z,96821.63
2023-01-13T18:18:53.340Z,96833.84
2023-01-13T18:21:44.169Z,96836.22
2023-01-13T18:24:32.315Z,96853.56
2023-01-13T18:27:20.400Z,96849.31
2023-01-13T18:29:48.879Z,96844.13
2023-01-13T18:32:15.639Z,96857.50
2023-01-13T18:34:42.597Z,96864.72
2023-01-13T18:37:13.040Z,96864.66
2023-01-13T18:39:39.590Z,96864.50
2023-01-13T18:42:42.849Z,96878.97
2023-01-13T18:45:10.701Z,96874.63
2023-01-13T18:47:39.163Z,96867.22
2023-01-13T18:50:06.195Z,96868.97
2023-01-13T18:52:33.164Z,96860.53
2023-01-13T18:54:59.696Z,96867.13
2023-01-13T18:57:26.182Z,96876.47
2023-01-13T18:59:52.769Z,96897.34
2023-01-13T19:02:20.858Z,96897.06
2023-01-13T19:04:50.709Z,96917.03
2023-01-13T19:07:23.671Z,96905.16
2023-01-13T19:09:50.356Z,96894.00
2023-01-13T19:12:25.838Z,96912.31
2023-01-13T19:14:56.739Z,96897.59
2023-01-13T19:17:25.439Z,96902.16
2023-01-13T19:19:54.280Z,96911.63
2023-01-13T19:22:29.518Z,96907.34
2023-01-13T19:24:57.138Z,96925.22
2023-01-13T19:27:24.228Z,96908.41
2023-01-13T19:29:52.483Z,96914.81
2023-01-13T19:32:21.097Z,96919.03
2023-01-13T19:34:51.080Z,96909.94
2023-01-13T19:37:19.509Z,96922.00
2023-01-13T19:39:46.239Z,96915.25
2023-01-13T19:42:32.180Z,96905.84
2023-01-13T19:45:20.027Z,96915.28
2023-01-13T19:47:47.886Z,96924.38
2023-01-13T19:50:14.988Z,96925.16
2023-01-13T19:52:42.565Z,96917.84
2023-01-13T19:55:11.779Z,96921.00
2023-01-13T19:57:40.082Z,96929.09
2023-01-13T20:00:08.072Z,96935.41
2023-01-13T20:02:36.690Z,96952.56
2023-01-13T20:05:05.859Z,96949.00
2023-01-13T20:07:33.470Z,96949.06
2023-01-13T20:10:01.558Z,96937.53
2023-01-13T20:12:29.213Z,96941.28
2023-01-13T20:14:56.033Z,96965.16
2023-01-13T20:17:22.996Z,96960.28
2023-01-13T20:19:51.694Z,96964.50
2023-01-13T20:22:19.424Z,96968.09
2023-01-13T20:24:45.981Z,96955.91
2023-01-13T20:27:12.857Z,96971.78
2023-01-13T20:29:39.828Z,96972.53
2023-01-13T20:32:06.409Z,96972.94
2023-01-13T20:34:33.011Z,96987.66
2023-01-13T20:37:00.617Z,96990.38
2023-01-13T20:39:27.322Z,96989.47
2023-01-13T20:42:13.552Z,96985.28
2023-01-13T20:44:40.726Z,96985.75
2023-01-13T20:47:07.750Z,96989.25
2023-01-13T20:49:36.216Z,96996.81
2023-01-13T20:52:09.033Z,96983.03
2023-01-13T20:54:40.261Z,96977.81
2023-01-13T20:57:09.775Z,96980.66
2023-01-13T20:59:37.953Z,96970.97
2023-01-13T21:02:06.144Z,96974.16
2023-01-13T21:04:32.776Z,96975.22
2023-01-13T21:06:59.289Z,96995.38
2023-01-13T21:09:27.300Z,97005.34
2023-01-13T21:12:17.917Z,97030.06
2023-01-13T21:15:02.852Z,97027.00
2023-01-13T21:17:51.202Z,97035.28
2023-01-13T21:20:18.944Z,97023.09
2023-01-13T21:22:47.806Z,97039.66
2023-01-13T21:25:15.806Z,97019.13
2023-01-13T21:27:44.124Z,97016.28
2023-01-13T21:30:15.217Z,96999.66
2023-01-13T21:32:43.137Z,96987.75
2023-01-13T21:35:11.094Z,96999.19
2023-01-13T21:37:38.720Z,97028.53
2023-01-13T21:40:08.243Z,97033.50
2023-01-13T21:42:53.707Z,97052.13
2023-01-13T21:45:39.200Z,97043.16
2023-01-13T21:48:07.344Z,97048.09
2023-01-13T21:50:34.825Z,97048.75
2023-01-13T21:53:01.440Z,97038.66
2023-01-13T21:55:28.909Z,97037.53
2023-01-13T21:58:01.507Z,97031.97
2023-01-13T22:00:31.279Z,97035.41
2023-01-13T22:02:58.791Z,97051.00
2023-01-13T22:05:26.432Z,97060.13
2023-01-13T22:07:53.564Z,97065.63
2023-01-13T22:10:22.722Z,97061.22
2023-01-13T22:12:53.942Z,97059.75
2023-01-13T22:15:22.229Z,97054.25
2023-01-13T22:17:52.782Z,97059.31
2023-01-13T22:20:20.501Z,97066.63
2023-01-13T22:22:50.128Z,97069.69
2023-01-13T22:25:20.265Z,97071.44
2023-01-13T22:27:49.276Z,97069.09
2023-01-13T22:30:21.717Z,97074.78
2023-01-13T22:32:49.051Z,97084.84
2023-01-13T22:35:16.198Z,97082.97
2023-01-13T22:37:43.234Z,97081.75
2023-01-13T22:40:12.295Z,97083.41
2023-01-13T22:42:43.355Z,97093.97
2023-01-13T22:45:12.095Z,97098.63
2023-01-13T22:47:38.669Z,97108.28
2023-01-13T22:50:06.431Z,97106.31
2023-01-13T22:52:36.485Z,97107.88
2023-01-13T22:55:04.038Z,97099.50
2023-01-13T22:57:36.064Z,97092.28
2023-01-13T23:00:06.374Z,97094.97
2023-01-13T23:02:34.516Z,97102.81
2023-01-13T23:05:01.471Z,97099.41
2023-01-13T23:07:28.108Z,97102.16
2023-01-13T23:09:54.591Z,97107.22
2023-01-13T23:12:21.114Z,97115.03
2023-01-13T23:14:48.346Z,97117.78
2023-01-13T23:17:14.786Z,97126.22
2023-01-13T23:19:41.593Z,97116.00
2023-01-13T23:22:08.044Z,97120.53
2023-01-13T23:24:34.558Z,97104.84
2023-01-13T23:27:01.001Z,97094.91
2023-01-13T23:29:27.786Z,97096.63
2023-01-13T23:31:54.354Z,97094.03
2023-01-13T23:34:20.906Z,97099.06
2023-01-13T23:36:48.215Z,97104.22
2023-01-13T23:39:15.105Z,97096.34
2023-01-13T23:41:41.849Z,97095.63
2023-01-13T23:44:09.257Z,97103.59
2023-01-13T23:46:35.820Z,97110.22
2023-01-13T23:49:04.990Z,97095.78
2023-01-13T23:51:32.046Z,97099.91
2023-01-13T23:53:59.527Z,97109.16
2023-01-13T23:56:30.799Z,97094.13
2023-01-13T23:58:57.671Z,97092.06
